createdAt,value
2019-03-01T00:02:11.217Z,96336.85
2019-03-01T00:05:09.456Z,96335.64
2019-03-01T00:08:11.633Z,96330.70
2019-03-01T00:10:57.238Z,96322.37
2019-03-01T00:13:52.296Z,96323.94
2019-03-01T00:17:06.725Z,96335.69
2019-03-01T00:20:02.772Z,96327.46
2019-03-01T00:22:45.287Z,96323.88
2019-03-01T00:25:24.851Z,96318.98
2019-03-01T00:28:43.306Z,96312.52
2019-03-01T00:31:53.166Z,96306.23
2019-03-01T00:34:59.118Z,96301.03
2019-03-01T00:38:09.590Z,96303.41
2019-03-01T00:41:18.448Z,96293.41
2019-03-01T00:43:58.232Z,96294.92
2019-03-01T00:46:27.843Z,96293.20
2019-03-01T00:48:57.436Z,96292.69
2019-03-01T00:51:27.046Z,96287.15
2019-03-01T00:53:56.636Z,96291.11
2019-03-01T00:56:26.260Z,96289.78
2019-03-01T00:58:56.843Z,96288.39
2019-03-01T01:01:26.457Z,96291.50
2019-03-01T01:03:56.120Z,96295.44
2019-03-01T01:06:25.715Z,96293.48
2019-03-01T01:08:55.402Z,96294.61
2019-03-01T01:11:25.101Z,96291.94
2019-03-01T01:13:54.687Z,96292.59
2019-03-01T01:16:24.307Z,96284.13
2019-03-01T01:18:53.929Z,96284.66
2019-03-01T01:21:23.545Z,96282.94
2019-03-01T01:23:53.155Z,96273.93
2019-03-01T01:26:22.838Z,96277.69
2019-03-01T01:28:52.462Z,96273.41
2019-03-01T01:31:22.044Z,96281.82
2019-03-01T01:33:51.660Z,96281.84
2019-03-01T01:36:21.342Z,96283.69
2019-03-01T01:38:50.932Z,96280.13
2019-03-01T01:41:20.550Z,96282.55
2019-03-01T01:43:50.139Z,96277.94
2019-03-01T01:46:19.755Z,96275.70
2019-03-01T01:48:49.341Z,96268.28
2019-03-01T01:51:18.967Z,96272.47
2019-03-01T01:53:48.555Z,96267.06
2019-03-01T01:56:18.148Z,96275.95
2019-03-01T01:58:47.773Z,96267.32
2019-03-01T02:01:17.435Z,96260.21
2019-03-01T02:03:47.022Z,96278.93
2019-03-01T02:06:16.643Z,96275.66
2019-03-01T02:08:46.244Z,96272.13
2019-03-01T02:11:15.942Z,96268.56
2019-03-01T02:13:45.571Z,96266.16
2019-03-01T02:16:15.308Z,96270.70
2019-03-01T02:18:44.903Z,96267.76
2019-03-01T02:21:14.591Z,96272.00
2019-03-01T02:23:44.184Z,96264.60
2019-03-01T02:26:14.678Z,96273.28
2019-03-01T02:28:44.271Z,96264.02
2019-03-01T02:31:14.212Z,96268.91
2019-03-01T02:33:43.752Z,96273.60
2019-03-01T02:36:13.366Z,96264.59
2019-03-01T02:38:42.986Z,96262.25
2019-03-01T02:41:12.594Z,96262.20
2019-03-01T02:43:42.223Z,96260.16
2019-03-01T02:46:11.809Z,96248.63
2019-03-01T02:48:41.420Z,96239.81
2019-03-01T02:51:11.013Z,96255.48
2019-03-01T02:53:40.634Z,96251.33
2019-03-01T02:56:10.228Z,96251.34
2019-03-01T02:58:39.854Z,96251.77
2019-03-01T03:01:09.471Z,96240.52
2019-03-01T03:03:39.058Z,96236.67
2019-03-01T03:06:12.780Z,96230.48
2019-03-01T03:08:42.539Z,96233.14
2019-03-01T03:11:12.553Z,96238.28
2019-03-01T03:13:42.141Z,96231.69
2019-03-01T03:16:11.925Z,96245.44
2019-03-01T03:18:41.546Z,96242.09
2019-03-01T03:21:11.171Z,96246.59
2019-03-01T03:23:40.770Z,96253.75
2019-03-01T03:26:10.387Z,96245.82
2019-03-01T03:28:39.976Z,96253.50
2019-03-01T03:31:09.569Z,96252.80
2019-03-01T03:33:39.188Z,96252.67
2019-03-01T03:36:08.809Z,96257.75
2019-03-01T03:38:38.515Z,96258.87
2019-03-01T03:41:08.229Z,96259.20
2019-03-01T03:43:37.850Z,96260.02
2019-03-01T03:46:07.450Z,96262.33
2019-03-01T03:48:37.060Z,96263.39
2019-03-01T03:51:06.658Z,96264.03
2019-03-01T03:53:36.273Z,96250.47
2019-03-01T03:56:06.021Z,96254.81
2019-03-01T03:58:35.678Z,96259.11
2019-03-01T04:01:05.494Z,96256.97
2019-03-01T04:03:35.180Z,96261.41
2019-03-01T04:06:05.074Z,96251.75
2019-03-01T04:08:35.225Z,96262.27
2019-03-01T04:11:04.884Z,96271.31
2019-03-01T04:13:34.498Z,96270.97
2019-03-01T04:16:04.160Z,96269.98
2019-03-01T04:18:33.844Z,96262.13
2019-03-01T04:21:03.440Z,96273.75
2019-03-01T04:23:33.126Z,96271.30
2019-03-01T04:26:02.744Z,96266.05
2019-03-01T04:28:32.332Z,96262.49
2019-03-01T04:31:03.527Z,96275.95
2019-03-01T04:33:33.118Z,96269.73
2019-03-01T04:36:02.725Z,96272.45
2019-03-01T04:38:32.355Z,96252.73
2019-03-01T04:41:01.943Z,96243.84
2019-03-01T04:43:31.599Z,96250.16
2019-03-01T04:46:01.217Z,96248.69
2019-03-01T04:48:30.806Z,96247.75
2019-03-01T04:51:00.425Z,96251.20
2019-03-01T04:53:30.018Z,96247.34
2019-03-01T04:55:59.631Z,96241.48
2019-03-01T04:58:29.245Z,96246.08
2019-03-01T05:00:58.856Z,96242.63
2019-03-01T05:03:28.489Z,96246.39
2019-03-01T05:05:58.073Z,96253.39
2019-03-01T05:08:27.688Z,96246.63
2019-03-01T05:10:57.274Z,96251.48
2019-03-01T05:13:26.890Z,96251.08
2019-03-01T05:15:56.506Z,96252.61
2019-03-01T05:18:26.105Z,96243.13
2019-03-01T05:20:55.791Z,96242.12
2019-03-01T05:23:25.411Z,96254.88
2019-03-01T05:25:55.283Z,96246.83
2019-03-01T05:28:24.907Z,96264.81
2019-03-01T05:30:54.526Z,96262.96
2019-03-01T05:33:24.149Z,96260.51
2019-03-01T05:35:53.744Z,96263.44
2019-03-01T05:38:23.364Z,96265.81
2019-03-01T05:40:52.960Z,96265.91
2019-03-01T05:43:22.579Z,96262.65
2019-03-01T05:45:52.171Z,96260.97
2019-03-01T05:48:21.793Z,96254.72
2019-03-01T05:50:51.415Z,96258.00
2019-03-01T05:53:21.015Z,96258.49
2019-03-01T05:55:50.637Z,96255.19
2019-03-01T05:58:35.191Z,96257.20
2019-03-01T06:01:27.282Z,96266.56
2019-03-01T06:04:04.412Z,96259.30
2019-03-01T06:07:04.452Z,96261.97
2019-03-01T06:09:53.513Z,96269.05
2019-03-01T06:12:45.825Z,96255.78
2019-03-01T06:15:44.440Z,96269.20
2019-03-01T06:18:35.777Z,96264.92
2019-03-01T06:21:15.621Z,96266.05
2019-03-01T06:24:13.787Z,96270.98
2019-03-01T06:26:53.747Z,96275.61
2019-03-01T06:29:36.319Z,96277.00
2019-03-01T06:32:18.936Z,96282.22
2019-03-01T06:35:01.804Z,96288.02
2019-03-01T06:38:12.597Z,96286.58
2019-03-01T06:40:56.821Z,96284.80
2019-03-01T06:43:48.343Z,96279.52
2019-03-01T06:46:25.012Z,96289.86
2019-03-01T06:48:58.872Z,96294.61
2019-03-01T06:51:29.434Z,96291.27
2019-03-01T06:53:59.035Z,96290.74
2019-03-01T06:56:28.795Z,96294.03
2019-03-01T06:58:58.554Z,96286.52
2019-03-01T07:01:30.236Z,96289.05
2019-03-01T07:04:01.481Z,96286.31
2019-03-01T07:06:31.104Z,96281.77
2019-03-01T07:09:00.764Z,96289.95
2019-03-01T07:11:30.382Z,96271.98
2019-03-01T07:13:59.967Z,96274.23
2019-03-01T07:16:29.582Z,96270.55
2019-03-01T07:18:59.207Z,96264.97
2019-03-01T07:21:28.819Z,96261.59
2019-03-01T07:23:58.481Z,96259.84
2019-03-01T07:26:28.119Z,96257.29
2019-03-01T07:28:59.314Z,96254.30
2019-03-01T07:31:28.922Z,96264.94
2019-03-01T07:33:58.575Z,96260.03
2019-03-01T07:36:28.200Z,96263.26
2019-03-01T07:38:57.821Z,96268.83
2019-03-01T07:41:27.447Z,96254.27
2019-03-01T07:43:57.114Z,96251.84
2019-03-01T07:46:26.731Z,96244.36
2019-03-01T07:48:56.370Z,96245.63
2019-03-01T07:51:27.023Z,96231.13
2019-03-01T07:53:57.390Z,96221.74
2019-03-01T07:56:27.015Z,96223.34
2019-03-01T07:58:57.564Z,96223.73
2019-03-01T08:01:29.165Z,96217.53
2019-03-01T08:03:59.401Z,96216.36
2019-03-01T08:06:29.165Z,96228.09
2019-03-01T08:08:58.832Z,96225.22
2019-03-01T08:11:31.371Z,96223.35
2019-03-01T08:13:59.774Z,96217.09
2019-03-01T08:16:29.370Z,96221.20
2019-03-01T08:18:58.996Z,96226.72
2019-03-01T08:21:28.594Z,96230.56
2019-03-01T08:23:58.217Z,96223.64
2019-03-01T08:26:30.710Z,96221.80
2019-03-01T08:28:59.837Z,96217.02
2019-03-01T08:31:29.537Z,96216.11
2019-03-01T08:33:59.130Z,96216.87
2019-03-01T08:36:28.747Z,96206.40
2019-03-01T08:39:00.986Z,96208.61
2019-03-01T08:41:29.700Z,96205.77
2019-03-01T08:43:59.300Z,96201.61
2019-03-01T08:46:28.916Z,96205.86
2019-03-01T08:48:58.507Z,96200.96
2019-03-01T08:51:28.199Z,96199.99
2019-03-01T08:53:57.861Z,96203.56
2019-03-01T08:56:27.488Z,96206.85
2019-03-01T08:58:57.153Z,96205.73
2019-03-01T09:01:27.341Z,96202.09
2019-03-01T09:04:01.488Z,96210.16
2019-03-01T09:06:31.080Z,96194.36
2019-03-01T09:09:00.882Z,96201.33
2019-03-01T09:11:30.685Z,96200.56
2019-03-01T09:14:00.378Z,96201.33
2019-03-01T09:16:30.035Z,96194.42
2019-03-01T09:18:59.680Z,96196.91
2019-03-01T09:21:29.303Z,96198.75
2019-03-01T09:23:58.952Z,96190.35
2019-03-01T09:26:28.547Z,96191.70
2019-03-01T09:28:58.145Z,96198.05
2019-03-01T09:31:27.764Z,96205.44
2019-03-01T09:33:57.457Z,96196.80
2019-03-01T09:36:28.708Z,96201.50
2019-03-01T09:38:58.298Z,96183.94
2019-03-01T09:41:27.924Z,96189.44
2019-03-01T09:43:59.599Z,96192.27
2019-03-01T09:46:28.857Z,96183.06
2019-03-01T09:48:58.459Z,96178.58
2019-03-01T09:51:28.092Z,96166.95
2019-03-01T09:53:57.683Z,96175.19
2019-03-01T09:56:27.278Z,96175.36
2019-03-01T09:58:56.975Z,96166.16
2019-03-01T10:01:26.603Z,96164.00
2019-03-01T10:03:56.444Z,96151.57
2019-03-01T10:06:26.098Z,96150.60
2019-03-01T10:08:55.784Z,96144.08
2019-03-01T10:11:25.384Z,96146.37
2019-03-01T10:13:55.072Z,96147.75
2019-03-01T10:16:24.767Z,96155.00
2019-03-01T10:18:54.392Z,96144.17
2019-03-01T10:21:25.363Z,96148.12
2019-03-01T10:23:55.026Z,96148.34
2019-03-01T10:26:24.625Z,96141.97
2019-03-01T10:29:03.014Z,96132.30
2019-03-01T10:31:32.608Z,96129.06
2019-03-01T10:34:02.226Z,96132.42
2019-03-01T10:36:31.819Z,96129.41
2019-03-01T10:39:01.521Z,96124.56
2019-03-01T10:41:31.138Z,96129.95
2019-03-01T10:44:00.734Z,96127.03
2019-03-01T10:46:30.352Z,96125.73
2019-03-01T10:48:59.948Z,96112.38
2019-03-01T10:51:29.568Z,96112.85
2019-03-01T10:53:59.160Z,96108.56
2019-03-01T10:56:28.787Z,96104.67
2019-03-01T10:58:58.548Z,96100.67
2019-03-01T11:01:28.167Z,96097.38
2019-03-01T11:03:57.861Z,96087.56
2019-03-01T11:06:27.658Z,96078.63
2019-03-01T11:08:57.278Z,96078.80
2019-03-01T11:11:26.948Z,96077.61
2019-03-01T11:13:56.555Z,96070.23
2019-03-01T11:16:26.191Z,96069.69
2019-03-01T11:18:55.785Z,96064.60
2019-03-01T11:21:25.456Z,96066.39
2019-03-01T11:23:55.075Z,96066.39
2019-03-01T11:26:24.698Z,96058.78
2019-03-01T11:28:54.293Z,96058.92
2019-03-01T11:31:23.886Z,96051.67
2019-03-01T11:33:53.520Z,96046.28
2019-03-01T11:36:23.187Z,96042.47
2019-03-01T11:38:52.805Z,96047.80
2019-03-01T11:41:22.440Z,96051.14
2019-03-01T11:43:52.028Z,96040.58
2019-03-01T11:46:21.694Z,96040.19
2019-03-01T11:48:51.310Z,96046.69
2019-03-01T11:51:20.927Z,96039.75
2019-03-01T11:53:50.628Z,96026.65
2019-03-01T11:56:20.287Z,96028.39
2019-03-01T11:58:49.906Z,96035.32
2019-03-01T12:01:19.492Z,96031.75
2019-03-01T12:03:49.104Z,96036.98
2019-03-01T12:06:18.698Z,96037.08
2019-03-01T12:08:48.399Z,96029.09
2019-03-01T12:11:18.162Z,96025.91
2019-03-01T12:13:47.819Z,96021.47
2019-03-01T12:16:17.516Z,96019.97
2019-03-01T12:18:47.111Z,96018.84
2019-03-01T12:21:16.774Z,96017.69
2019-03-01T12:23:46.328Z,96015.95
2019-03-01T12:26:15.946Z,96014.45
2019-03-01T12:28:45.544Z,96018.22
2019-03-01T12:31:15.173Z,96015.39
2019-03-01T12:33:44.763Z,96016.02
2019-03-01T12:36:14.376Z,96020.78
2019-03-01T12:38:44.000Z,96021.08
2019-03-01T12:41:13.624Z,96018.08
2019-03-01T12:43:43.215Z,96020.97
2019-03-01T12:46:12.843Z,96023.48
2019-03-01T12:48:42.442Z,96029.03
2019-03-01T12:51:12.075Z,96024.38
2019-03-01T12:53:41.690Z,96028.75
2019-03-01T12:56:11.285Z,96031.86
2019-03-01T12:58:40.881Z,96029.91
2019-03-01T13:01:10.508Z,96033.45
2019-03-01T13:03:40.569Z,96039.89
2019-03-01T13:06:11.437Z,96027.44
2019-03-01T13:08:41.029Z,96022.84
2019-03-01T13:11:12.480Z,96022.78
2019-03-01T13:13:41.979Z,96025.30
2019-03-01T13:16:11.572Z,96029.97
2019-03-01T13:18:41.188Z,96035.34
2019-03-01T13:21:12.941Z,96035.52
2019-03-01T13:23:42.206Z,96037.34
2019-03-01T13:26:11.836Z,96034.22
2019-03-01T13:28:43.869Z,96033.16
2019-03-01T13:31:12.780Z,96023.41
2019-03-01T13:33:42.373Z,96021.09
2019-03-01T13:36:13.305Z,96026.12
2019-03-01T13:38:43.045Z,96019.74
2019-03-01T13:41:12.640Z,96018.83
2019-03-01T13:43:42.255Z,96014.27
2019-03-01T13:46:11.847Z,96016.45
2019-03-01T13:48:41.511Z,96014.52
2019-03-01T13:51:13.892Z,96016.02
2019-03-01T13:53:48.676Z,96012.95
2019-03-01T13:56:13.894Z,96012.20
2019-03-01T13:58:43.482Z,96026.25
2019-03-01T14:01:13.080Z,96014.05
2019-03-01T14:03:42.971Z,96003.36
2019-03-01T14:06:12.567Z,96002.28
2019-03-01T14:08:42.190Z,96002.81
2019-03-01T14:11:15.322Z,95997.20
2019-03-01T14:13:43.159Z,95996.33
2019-03-01T14:16:12.747Z,95992.86
2019-03-01T14:18:42.498Z,95988.68
2019-03-01T14:21:12.099Z,95991.19
2019-03-01T14:23:41.717Z,95996.77
2019-03-01T14:26:11.363Z,95993.47
2019-03-01T14:28:41.347Z,95991.05
2019-03-01T14:31:12.308Z,95982.14
2019-03-01T14:33:41.923Z,95991.03
2019-03-01T14:36:11.514Z,95988.81
2019-03-01T14:38:41.302Z,95985.20
2019-03-01T14:41:10.992Z,95989.16
2019-03-01T14:43:40.618Z,95994.81
2019-03-01T14:46:10.220Z,95990.05
2019-03-01T14:48:43.005Z,95987.50
2019-03-01T14:51:11.847Z,95990.91
2019-03-01T14:53:41.596Z,95991.28
2019-03-01T14:56:19.131Z,95992.34
2019-03-01T14:59:14.630Z,95994.05
2019-03-01T15:02:04.215Z,95988.08
2019-03-01T15:04:33.901Z,95990.45
2019-03-01T15:07:03.489Z,95998.45
2019-03-01T15:09:33.115Z,95991.63
2019-03-01T15:12:02.711Z,95992.91
2019-03-01T15:14:32.402Z,95999.47
2019-03-01T15:17:02.033Z,95994.66
2019-03-01T15:19:31.627Z,95992.37
2019-03-01T15:22:01.243Z,95996.02
2019-03-01T15:24:33.256Z,95990.97
2019-03-01T15:27:04.054Z,95990.36
2019-03-01T15:29:33.550Z,95991.63
2019-03-01T15:32:03.194Z,95991.83
2019-03-01T15:34:32.783Z,96000.72
2019-03-01T15:37:02.378Z,95995.14
2019-03-01T15:39:32.001Z,96001.92
2019-03-01T15:42:01.596Z,96010.45
2019-03-01T15:44:31.242Z,96008.34
2019-03-01T15:47:00.830Z,96014.36
2019-03-01T15:49:30.424Z,96016.70
2019-03-01T15:52:00.044Z,96020.08
2019-03-01T15:54:32.511Z,96016.23
2019-03-01T15:57:01.022Z,96021.09
2019-03-01T15:59:30.611Z,96023.33
2019-03-01T16:02:00.279Z,96028.99
2019-03-01T16:04:30.416Z,96032.63
2019-03-01T16:07:01.317Z,96030.82
2019-03-01T16:09:30.912Z,96032.50
2019-03-01T16:12:00.538Z,96039.28
2019-03-01T16:14:30.127Z,96050.44
2019-03-01T16:16:59.786Z,96043.49
2019-03-01T16:19:29.386Z,96053.56
2019-03-01T16:21:58.984Z,96057.08
2019-03-01T16:24:28.610Z,96054.39
2019-03-01T16:26:58.209Z,96054.23
2019-03-01T16:29:27.820Z,96056.77
2019-03-01T16:31:57.422Z,96064.05
2019-03-01T16:34:27.066Z,96062.73
2019-03-01T16:36:57.229Z,96053.77
2019-03-01T16:39:26.826Z,96063.92
2019-03-01T16:41:56.516Z,96063.01
2019-03-01T16:44:26.108Z,96065.91
2019-03-01T16:46:55.731Z,96066.42
2019-03-01T16:49:27.210Z,96069.16
2019-03-01T16:51:56.673Z,96073.45
2019-03-01T16:54:26.262Z,96077.06
2019-03-01T16:56:55.856Z,96081.72
2019-03-01T16:59:25.483Z,96081.83
2019-03-01T17:01:55.096Z,96088.16
2019-03-01T17:04:27.423Z,96089.94
2019-03-01T17:06:56.038Z,96089.75
2019-03-01T17:09:25.635Z,96084.15
2019-03-01T17:11:55.329Z,96088.91
2019-03-01T17:14:24.946Z,96094.48
2019-03-01T17:16:56.424Z,96104.02
2019-03-01T17:19:27.556Z,96106.63
2019-03-01T17:21:57.278Z,96106.94
2019-03-01T17:24:26.896Z,96114.13
2019-03-01T17:26:56.514Z,96114.54
2019-03-01T17:29:26.112Z,96131.17
2019-03-01T17:31:58.846Z,96132.88
2019-03-01T17:34:29.318Z,96134.69
2019-03-01T17:36:58.401Z,96137.92
2019-03-01T17:39:28.029Z,96143.38
2019-03-01T17:41:57.628Z,96148.52
2019-03-01T17:44:27.246Z,96147.42
2019-03-01T17:46:56.878Z,96150.53
2019-03-01T17:49:26.519Z,96149.28
2019-03-01T17:51:56.601Z,96145.74
2019-03-01T17:54:27.293Z,96148.48
2019-03-01T17:56:57.193Z,96146.50
2019-03-01T17:59:27.496Z,96152.63
2019-03-01T18:01:57.188Z,96152.19
2019-03-01T18:04:26.813Z,96154.97
2019-03-01T18:06:56.434Z,96164.72
2019-03-01T18:09:26.028Z,96156.30
2019-03-01T18:11:55.719Z,96169.97
2019-03-01T18:14:25.310Z,96171.38
2019-03-01T18:16:57.129Z,96175.65
2019-03-01T18:19:26.782Z,96183.63
2019-03-01T18:21:57.338Z,96180.05
2019-03-01T18:24:26.932Z,96182.78
2019-03-01T18:26:56.554Z,96175.29
2019-03-01T18:29:26.144Z,96177.91
2019-03-01T18:31:55.763Z,96176.62
2019-03-01T18:34:25.393Z,96178.00
2019-03-01T18:36:54.999Z,96182.80
2019-03-01T18:39:24.590Z,96186.10
2019-03-01T18:41:54.214Z,96196.63
2019-03-01T18:44:25.905Z,96196.10
2019-03-01T18:46:55.429Z,96195.83
2019-03-01T18:49:25.803Z,96199.22
2019-03-01T18:51:55.429Z,96202.78
2019-03-01T18:54:25.018Z,96202.84
2019-03-01T18:56:54.638Z,96203.02
2019-03-01T18:59:25.754Z,96209.75
2019-03-01T19:01:55.428Z,96209.56
2019-03-01T19:04:29.737Z,96213.55
2019-03-01T19:06:56.330Z,96212.19
2019-03-01T19:09:25.938Z,96216.55
2019-03-01T19:11:57.170Z,96223.14
2019-03-01T19:14:26.929Z,96227.16
2019-03-01T19:16:56.775Z,96226.64
2019-03-01T19:19:29.741Z,96225.76
2019-03-01T19:21:57.673Z,96227.44
2019-03-01T19:24:27.297Z,96224.01
2019-03-01T19:26:56.881Z,96231.19
2019-03-01T19:29:26.500Z,96235.63
2019-03-01T19:31:56.125Z,96231.28
2019-03-01T19:34:25.714Z,96238.00
2019-03-01T19:36:55.302Z,96235.59
2019-03-01T19:39:24.919Z,96239.44
2019-03-01T19:41:57.995Z,96245.11
2019-03-01T19:44:28.885Z,96245.63
2019-03-01T19:46:57.173Z,96245.63
2019-03-01T19:49:26.789Z,96246.08
2019-03-01T19:51:56.405Z,96254.79
2019-03-01T19:54:26.026Z,96259.48
2019-03-01T19:56:57.752Z,96257.53
2019-03-01T19:59:26.978Z,96262.34
2019-03-01T20:01:56.608Z,96258.28
2019-03-01T20:04:26.193Z,96262.60
2019-03-01T20:06:55.805Z,96271.91
2019-03-01T20:09:25.400Z,96267.53
2019-03-01T20:11:55.018Z,96264.05
2019-03-01T20:14:24.606Z,96273.40
2019-03-01T20:16:54.801Z,96271.77
2019-03-01T20:19:25.608Z,96280.52
2019-03-01T20:21:55.223Z,96278.19
2019-03-01T20:24:24.816Z,96283.42
2019-03-01T20:26:54.728Z,96282.00
2019-03-01T20:29:25.916Z,96283.36
2019-03-01T20:31:55.501Z,96280.39
2019-03-01T20:34:25.118Z,96284.17
2019-03-01T20:36:54.705Z,96291.80
2019-03-01T20:39:24.321Z,96285.98
2019-03-01T20:41:53.911Z,96294.41
2019-03-01T20:44:23.500Z,96293.34
2019-03-01T20:46:53.935Z,96294.56
2019-03-01T20:49:23.681Z,96291.80
2019-03-01T20:51:53.363Z,96299.04
2019-03-01T20:54:25.767Z,96300.67
2019-03-01T20:56:54.358Z,96298.52
2019-03-01T20:59:23.944Z,96303.94
2019-03-01T21:01:53.562Z,96310.75
2019-03-01T21:04:23.151Z,96308.44
2019-03-01T21:06:52.764Z,96307.57
2019-03-01T21:09:22.348Z,96312.59
2019-03-01T21:11:51.971Z,96312.97
2019-03-01T21:14:23.875Z,96315.95
2019-03-01T21:16:52.897Z,96309.68
2019-03-01T21:19:22.505Z,96316.81
2019-03-01T21:21:52.137Z,96325.41
2019-03-01T21:24:22.942Z,96326.49
2019-03-01T21:26:53.065Z,96323.73
2019-03-01T21:29:22.684Z,96323.36
2019-03-01T21:31:52.302Z,96318.14
2019-03-01T21:34:21.894Z,96328.99
2019-03-01T21:36:51.506Z,96334.98
2019-03-01T21:39:24.134Z,96330.76
2019-03-01T21:41:52.489Z,96332.14
2019-03-01T21:44:22.099Z,96323.64
2019-03-01T21:46:51.708Z,96327.52
2019-03-01T21:49:21.294Z,96323.53
2019-03-01T21:51:51.709Z,96321.98
2019-03-01T21:54:22.243Z,96325.98
2019-03-01T21:57:14.301Z,96333.36
2019-03-01T21:59:23.172Z,96329.91
2019-03-01T22:01:53.025Z,96332.18
2019-03-01T22:04:22.810Z,96329.13
2019-03-01T22:06:55.999Z,96327.02
2019-03-01T22:09:24.338Z,96327.89
2019-03-01T22:11:54.968Z,96325.89
2019-03-01T22:14:24.578Z,96330.97
2019-03-01T22:16:54.227Z,96329.77
2019-03-01T22:19:23.810Z,96329.69
2019-03-01T22:21:54.695Z,96339.73
2019-03-01T22:24:26.554Z,96343.16
2019-03-01T22:26:56.319Z,96345.13
2019-03-01T22:29:25.887Z,96341.75
2019-03-01T22:31:55.573Z,96342.05
2019-03-01T22:34:27.466Z,96343.12
2019-03-01T22:36:56.483Z,96343.84
2019-03-01T22:39:26.096Z,96346.88
2019-03-01T22:41:55.715Z,96344.44
2019-03-01T22:44:25.344Z,96345.75
2019-03-01T22:46:57.928Z,96340.22
2019-03-01T22:49:28.549Z,96337.91
2019-03-01T22:51:57.652Z,96337.23
2019-03-01T22:54:27.265Z,96327.30
2019-03-01T22:56:56.878Z,96326.53
2019-03-01T22:59:26.466Z,96322.91
2019-03-01T23:01:56.482Z,96333.27
2019-03-01T23:04:26.549Z,96338.22
2019-03-01T23:06:57.402Z,96340.64
2019-03-01T23:09:27.058Z,96344.58
2019-03-01T23:11:56.669Z,96348.00
2019-03-01T23:14:27.383Z,96346.84
2019-03-01T23:16:57.598Z,96346.61
2019-03-01T23:19:27.211Z,96356.06
2019-03-01T23:21:56.863Z,96359.41
2019-03-01T23:24:26.474Z,96367.88
2019-03-01T23:26:56.791Z,96367.58
2019-03-01T23:29:27.350Z,96372.87
2019-03-01T23:31:57.021Z,96365.20
2019-03-01T23:34:26.651Z,96369.91
2019-03-01T23:36:56.234Z,96370.50
2019-03-01T23:39:25.817Z,96368.75
2019-03-01T23:41:55.437Z,96364.25
2019-03-01T23:44:25.021Z,96366.08
2019-03-01T23:46:54.614Z,96370.37
2019-03-01T23:49:24.931Z,96371.45
2019-03-01T23:51:54.640Z,96361.33
2019-03-01T23:54:24.226Z,96353.00
2019-03-01T23:56:53.810Z,96354.83
2019-03-01T23:59:23.728Z,96350.20
